Time;durP1;ratioP1;P1;durP2;ratioP2;P2;SDS_P1;SDS_P2;PMS_P1;PMS_P2;Temp;Humidity;BMP_temperature;BMP_pressure;BME280_temperature;BME280_humidity;BME280_pressure;Samples;Min_cycle;Max_cycle;Signal;HPM_P1;HPM_P2
2022/07/31 00:01:53;;;;;;;4;2.2;;;;;;;;;;;;;
2022/07/31 00:04:16;;;;;;;2.8;2.4;;;;;;;;;;;;;
2022/07/31 00:06:43;;;;;;;2.3;2.1;;;;;;;;;;;;;
2022/07/31 00:09:07;;;;;;;3.4;2.2;;;;;;;;;;;;;
2022/07/31 00:11:33;;;;;;;2.5;2.3;;;;;;;;;;;;;
2022/07/31 00:13:58;;;;;;;2.3;2.1;;;;;;;;;;;;;
2022/07/31 00:16:23;;;;;;;3.3;2.3;;;;;;;;;;;;;
2022/07/31 00:18:48;;;;;;;2.9;2.7;;;;;;;;;;;;;
2022/07/31 00:21:15;;;;;;;4.2;2.7;;;;;;;;;;;;;
2022/07/31 00:23:40;;;;;;;3.6;2.7;;;;;;;;;;;;;
2022/07/31 00:26:06;;;;;;;4.2;2.3;;;;;;;;;;;;;
2022/07/31 00:28:32;;;;;;;2.3;2.1;;;;;;;;;;;;;
2022/07/31 00:30:56;;;;;;;3.4;2.3;;;;;;;;;;;;;
2022/07/31 00:33:22;;;;;;;2.3;2.1;;;;;;;;;;;;;
2022/07/31 00:35:47;;;;;;;3.4;1.9;;;;;;;;;;;;;
2022/07/31 00:38:12;;;;;;;2.4;2.2;;;;;;;;;;;;;
2022/07/31 00:40:37;;;;;;;2.7;2.1;;;;;;;;;;;;;
2022/07/31 00:43:03;;;;;;;3.1;2.2;;;;;;;;;;;;;
2022/07/31 00:45:28;;;;;;;2.5;2.3;;;;;;;;;;;;;
2022/07/31 00:47:53;;;;;;;2.7;2.5;;;;;;;;;;;;;
2022/07/31 00:50:18;;;;;;;3.3;2.4;;;;;;;;;;;;;
2022/07/31 00:52:44;;;;;;;2.5;2.3;;;;;;;;;;;;;
2022/07/31 00:55:10;;;;;;;4.5;2.6;;;;;;;;;;;;;
2022/07/31 00:57:36;;;;;;;2.7;2.5;;;;;;;;;;;;;
2022/07/31 01:00:01;;;;;;;4.1;2.7;;;;;;;;;;;;;
2022/07/31 01:02:26;;;;;;;2.6;2.4;;;;;;;;;;;;;
2022/07/31 01:04:51;;;;;;;2.3;2.1;;;;;;;;;;;;;
2022/07/31 01:07:16;;;;;;;2.7;2.1;;;;;;;;;;;;;
2022/07/31 01:09:43;;;;;;;3;2.3;;;;;;;;;;;;;
2022/07/31 01:12:07;;;;;;;3;2.7;;;;;;;;;;;;;
2022/07/31 01:14:33;;;;;;;2.4;2.2;;;;;;;;;;;;;
2022/07/31 01:16:58;;;;;;;2.8;2.2;;;;;;;;;;;;;
2022/07/31 01:19:25;;;;;;;3.5;2.5;;;;;;;;;;;;;
2022/07/31 01:21:50;;;;;;;2.7;2.3;;;;;;;;;;;;;
2022/07/31 01:24:15;;;;;;;2.3;2.1;;;;;;;;;;;;;
2022/07/31 01:26:40;;;;;;;2.7;2.2;;;;;;;;;;;;;
2022/07/31 01:29:08;;;;;;;2.8;2.4;;;;;;;;;;;;;
2022/07/31 01:31:31;;;;;;;2.4;2.2;;;;;;;;;;;;;
2022/07/31 01:33:56;;;;;;;2.6;2.4;;;;;;;;;;;;;
2022/07/31 01:36:22;;;;;;;3.2;2.2;;;;;;;;;;;;;
2022/07/31 01:38:47;;;;;;;2.3;2.1;;;;;;;;;;;;;
2022/07/31 01:41:13;;;;;;;2.5;2.3;;;;;;;;;;;;;
2022/07/31 01:43:39;;;;;;;3.5;2.5;;;;;;;;;;;;;
2022/07/31 01:46:05;;;;;;;2.9;2.3;;;;;;;;;;;;;
2022/07/31 01:48:30;;;;;;;2.9;2.6;;;;;;;;;;;;;
2022/07/31 01:50:56;;;;;;;2.7;2.5;;;;;;;;;;;;;
2022/07/31 01:53:20;;;;;;;3.9;2.6;;;;;;;;;;;;;
2022/07/31 01:55:47;;;;;;;2.6;2.4;;;;;;;;;;;;;
2022/07/31 01:58:12;;;;;;;2.9;2.6;;;;;;;;;;;;;
2022/07/31 02:00:38;;;;;;;4.7;2.3;;;;;;;;;;;;;
2022/07/31 02:03:03;;;;;;;3;2.2;;;;;;;;;;;;;
2022/07/31 02:05:29;;;;;;;2.6;2.4;;;;;;;;;;;;;
2022/07/31 02:07:54;;;;;;;2.5;2.3;;;;;;;;;;;;;
2022/07/31 02:10:20;;;;;;;3.8;2.8;;;;;;;;;;;;;
2022/07/31 02:12:45;;;;;;;2.5;2.3;;;;;;;;;;;;;
2022/07/31 02:15:13;;;;;;;3.2;2.4;;;;;;;;;;;;;
2022/07/31 02:17:38;;;;;;;2.6;2.4;;;;;;;;;;;;;
2022/07/31 02:20:04;;;;;;;3.2;2.5;;;;;;;;;;;;;
2022/07/31 02:22:29;;;;;;;3.1;2.4;;;;;;;;;;;;;
2022/07/31 02:24:56;;;;;;;2.3;2.1;;;;;;;;;;;;;
2022/07/31 02:27:21;;;;;;;3.2;2.4;;;;;;;;;;;;;
2022/07/31 02:29:46;;;;;;;2.2;2;;;;;;;;;;;;;
2022/07/31 02:32:11;;;;;;;3.6;2.2;;;;;;;;;;;;;
2022/07/31 02:34:37;;;;;;;2.9;2.3;;;;;;;;;;;;;
2022/07/31 02:37:02;;;;;;;2.5;2.3;;;;;;;;;;;;;
2022/07/31 02:39:28;;;;;;;2.4;2.2;;;;;;;;;;;;;
2022/07/31 02:41:53;;;;;;;2.4;2.2;;;;;;;;;;;;;
2022/07/31 02:44:21;;;;;;;2.5;2.3;;;;;;;;;;;;;
2022/07/31 02:46:46;;;;;;;5;2.8;;;;;;;;;;;;;
2022/07/31 02:49:12;;;;;;;2.6;2.4;;;;;;;;;;;;;
2022/07/31 02:51:37;;;;;;;3;2.5;;;;;;;;;;;;;
2022/07/31 02:54:03;;;;;;;2.6;2.4;;;;;;;;;;;;;
2022/07/31 02:56:28;;;;;;;3.3;2.6;;;;;;;;;;;;;
2022/07/31 02:58:55;;;;;;;2.3;2.2;;;;;;;;;;;;;
2022/07/31 03:01:20;;;;;;;3;2.5;;;;;;;;;;;;;
2022/07/31 03:03:45;;;;;;;5;2.5;;;;;;;;;;;;;
2022/07/31 03:06:10;;;;;;;2.5;2.3;;;;;;;;;;;;;
2022/07/31 03:08:37;;;;;;;2.7;2.2;;;;;;;;;;;;;
2022/07/31 03:11:02;;;;;;;3.1;2.4;;;;;;;;;;;;;
2022/07/31 03:13:29;;;;;;;2.5;2.3;;;;;;;;;;;;;
2022/07/31 03:15:54;;;;;;;2.8;2.5;;;;;;;;;;;;;
2022/07/31 03:18:20;;;;;;;3.5;2.5;;;;;;;;;;;;;
2022/07/31 03:20:45;;;;;;;2.7;2.2;;;;;;;;;;;;;
2022/07/31 03:23:13;;;;;;;2.7;2.3;;;;;;;;;;;;;
2022/07/31 03:25:38;;;;;;;4.7;2.6;;;;;;;;;;;;;
2022/07/31 03:28:05;;;;;;;4.3;2.4;;;;;;;;;;;;;
2022/07/31 03:30:30;;;;;;;2.4;2.1;;;;;;;;;;;;;
2022/07/31 03:33:01;;;;;;;2.9;2.6;;;;;;;;;;;;;
2022/07/31 03:35:23;;;;;;;3.8;2.7;;;;;;;;;;;;;
2022/07/31 03:37:49;;;;;;;3.5;2.6;;;;;;;;;;;;;
2022/07/31 03:40:15;;;;;;;2.8;2.5;;;;;;;;;;;;;
2022/07/31 03:42:43;;;;;;;3.1;2.5;;;;;;;;;;;;;
2022/07/31 03:45:08;;;;;;;3.6;2.7;;;;;;;;;;;;;
2022/07/31 03:47:36;;;;;;;4.8;3;;;;;;;;;;;;;
2022/07/31 03:50:01;;;;;;;3.4;2.6;;;;;;;;;;;;;
2022/07/31 03:52:28;;;;;;;5;3.1;;;;;;;;;;;;;
2022/07/31 03:54:53;;;;;;;3.9;2.8;;;;;;;;;;;;;
2022/07/31 03:57:20;;;;;;;5.2;3.2;;;;;;;;;;;;;
2022/07/31 03:59:45;;;;;;;3.8;2.9;;;;;;;;;;;;;
2022/07/31 04:02:38;;;;;;;3.1;2.8;;;;;;;16.08;87.57422;941.2073;;;;
2022/07/31 04:05:03;;;;;;;4;3.1;;;;;;;16.07;87.81348;941.2452;;;;
2022/07/31 04:07:29;;;;;;;3.7;2.9;;;;;;;16.18;87.0752;941.2372;;;;
2022/07/31 04:09:58;;;;;;;2.7;2.5;;;;;;;16.21;87.33496;941.2708;;;;
2022/07/31 04:12:25;;;;;;;3.6;2.8;;;;;;;16.11;88.11328;941.2305;;;;
2022/07/31 04:14:57;;;;;;;4.2;3.1;;;;;;;16.2;87.92285;941.3278;;;;
2022/07/31 04:17:32;;;;;;;4.6;3.5;;;;;;;16.2;87.1709;941.3109;;;;
2022/07/31 04:19:57;;;;;;;3.7;3.4;;;;;;;16.19;87.58398;941.2291;;;;
2022/07/31 04:22:22;;;;;;;3.6;3.3;;;;;;;16.25;86.92578;941.3455;;;;
2022/07/31 04:24:53;;;;;;;4.8;3.2;;;;;;;16.32;86.66211;941.2758;;;;
2022/07/31 04:27:23;;;;;;;3.1;2.8;;;;;;;16.38;86.5127;941.3042;;;;
2022/07/31 04:29:48;;;;;;;3;2.6;;;;;;;16.4;86.62012;941.3209;;;;
2022/07/31 04:32:18;;;;;;;3.4;2.7;;;;;;;16.36;85.69922;941.2505;;;;
2022/07/31 04:34:42;;;;;;;2.7;2.5;;;;;;;16.4;85.87988;941.2719;;;;
2022/07/31 04:37:12;;;;;;;2.8;2.2;;;;;;;16.47;85.70703;941.2628;;;;
2022/07/31 04:39:42;;;;;;;2.3;2.1;;;;;;;16.52;86.28516;941.3348;;;;
2022/07/31 04:42:11;;;;;;;4.9;3.2;;;;;;;16.57;86.62891;941.3794;;;;
2022/07/31 04:44:36;;;;;;;3.5;3.2;;;;;;;16.62;85.74902;941.4435;;;;
2022/07/31 04:47:02;;;;;;;3.4;3.1;;;;;;;16.64;85.52246;941.3862;;;;
2022/07/31 04:49:31;;;;;;;3.1;2.8;;;;;;;16.63;85.03223;941.4289;;;;
2022/07/31 04:51:56;;;;;;;3.4;3.1;;;;;;;16.58;85.26465;941.3632;;;;
2022/07/31 04:54:26;;;;;;;3;2.7;;;;;;;16.68;85.2627;941.3814;;;;
2022/07/31 04:56:51;;;;;;;3.2;2.6;;;;;;;16.77;85.15332;941.4127;;;;
2022/07/31 04:59:19;;;;;;;2.7;2.5;;;;;;;16.8;86.08496;941.4664;;;;
2022/07/31 05:01:43;;;;;;;2.7;2.5;;;;;;;16.77;86.68164;941.4578;;;;
2022/07/31 05:04:10;;;;;;;3.6;2.5;;;;;;;16.85;86.28125;941.475;;;;
2022/07/31 05:06:35;;;;;;;3.6;2.7;;;;;;;16.9;85.72266;941.4247;;;;
2022/07/31 05:09:00;;;;;;;3.4;2.9;;;;;;;16.92;86.59473;941.4325;;;;
2022/07/31 05:11:25;;;;;;;3;2.4;;;;;;;17.03;85.52637;941.4559;;;;
2022/07/31 05:13:53;;;;;;;5.3;3.6;;;;;;;17.09;84.85547;941.382;;;;
2022/07/31 05:16:21;;;;;;;6.4;4.4;;;;;;;17.17;84.79004;941.447;;;;
2022/07/31 05:18:46;;;;;;;4.1;3.6;;;;;;;17.3;83.25977;941.4395;;;;
2022/07/31 05:21:14;;;;;;;4.4;3.2;;;;;;;17.41;82.54004;941.3923;;;;
2022/07/31 05:23:39;;;;;;;3.7;3.1;;;;;;;17.59;82.08496;941.425;;;;
2022/07/31 05:26:06;;;;;;;4.2;2.9;;;;;;;17.78;80.53125;941.4063;;;;
2022/07/31 05:28:32;;;;;;;4.6;2.4;;;;;;;17.84;79.49805;941.3172;;;;
2022/07/31 05:31:03;;;;;;;3.6;2.9;;;;;;;17.86;80.91602;941.3959;;;;
2022/07/31 05:33:34;;;;;;;3.3;2.2;;;;;;;17.88;80.39844;941.3802;;;;
2022/07/31 05:36:02;;;;;;;3;2.5;;;;;;;17.84;79.9375;941.3672;;;;
2022/07/31 05:38:27;;;;;;;2.5;2.3;;;;;;;17.81;80.28125;941.4035;;;;
2022/07/31 05:40:56;;;;;;;3.1;2.3;;;;;;;17.74;80.94141;941.3787;;;;
2022/07/31 05:43:21;;;;;;;4.4;2.4;;;;;;;17.69;81.04883;941.3608;;;;
2022/07/31 05:45:51;;;;;;;2.2;2;;;;;;;17.68;80.19824;941.4012;;;;
2022/07/31 05:48:20;;;;;;;2.4;1.9;;;;;;;17.72;80.9707;941.4136;;;;
2022/07/31 05:50:45;;;;;;;3.9;2.4;;;;;;;17.81;81.15234;941.4211;;;;
2022/07/31 05:53:14;;;;;;;2.3;2.1;;;;;;;17.83;80.95801;941.3753;;;;
2022/07/31 05:55:38;;;;;;;2.3;2.1;;;;;;;17.88;81.00098;941.3787;;;;
2022/07/31 05:58:05;;;;;;;2.5;2.3;;;;;;;17.96;81.74902;941.3115;;;;
2022/07/31 06:00:30;;;;;;;2.4;2.1;;;;;;;18.08;80.85352;941.373;;;;
2022/07/31 06:02:58;;;;;;;4.9;2.4;;;;;;;18.14;82.09668;941.4124;;;;
2022/07/31 06:05:23;;;;;;;2.6;2.4;;;;;;;18.27;81.33008;941.3527;;;;
2022/07/31 06:07:52;;;;;;;2.1;2;;;;;;;18.39;79.77051;941.3976;;;;
2022/07/31 06:10:23;;;;;;;2.1;1.9;;;;;;;18.44;79.09473;941.3794;;;;
2022/07/31 06:12:48;;;;;;;2.2;2;;;;;;;18.5;78.77832;941.3929;;;;
2022/07/31 06:15:16;;;;;;;2.8;2.2;;;;;;;18.53;79.01758;941.3884;;;;
2022/07/31 06:17:41;;;;;;;2.8;2.1;;;;;;;18.5;78.86133;941.4073;;;;
2022/07/31 06:20:10;;;;;;;2.9;2.2;;;;;;;18.58;77.57227;941.4504;;;;
2022/07/31 06:22:35;;;;;;;4.6;2.4;;;;;;;18.58;77.67676;941.3577;;;;
2022/07/31 06:25:00;;;;;;;4.3;2.8;;;;;;;18.58;77.56055;941.4288;;;;
2022/07/31 06:27:27;;;;;;;3.2;2.2;;;;;;;18.6;76.43555;941.3897;;;;
2022/07/31 06:29:52;;;;;;;2.5;2.3;;;;;;;18.48;76.20605;941.3892;;;;
2022/07/31 06:32:21;;;;;;;3.7;2.6;;;;;;;18.4;77.06348;941.4386;;;;
2022/07/31 06:34:43;;;;;;;3.6;2.6;;;;;;;18.52;77.79297;941.4434;;;;
2022/07/31 06:37:09;;;;;;;3.2;2.4;;;;;;;18.55;76.61523;941.4678;;;;
2022/07/31 06:39:34;;;;;;;2.7;2.2;;;;;;;18.7;77.38281;941.5048;;;;
2022/07/31 06:42:00;;;;;;;2.8;1.9;;;;;;;18.88;77.29883;941.5198;;;;
2022/07/31 06:44:26;;;;;;;4.4;2.5;;;;;;;18.97;75.3125;941.5229;;;;
2022/07/31 06:46:53;;;;;;;3.2;2.5;;;;;;;18.88;74.92578;941.5229;;;;
2022/07/31 06:49:18;;;;;;;2.7;2.3;;;;;;;18.84;75.31445;941.5398;;;;
2022/07/31 06:51:46;;;;;;;3;2.7;;;;;;;18.88;75.4834;941.5377;;;;
2022/07/31 06:54:11;;;;;;;3.7;2.7;;;;;;;18.83;76.89551;941.5683;;;;
2022/07/31 06:56:37;;;;;;;3.1;2.5;;;;;;;18.95;77.19531;941.5646;;;;
2022/07/31 06:59:02;;;;;;;3.3;2.3;;;;;;;18.98;76.7002;941.5639;;;;
2022/07/31 07:01:29;;;;;;;2.5;2.3;;;;;;;18.96;75.99707;941.6031;;;;
2022/07/31 07:03:54;;;;;;;2.6;2.4;;;;;;;18.94;76.13379;941.538;;;;
2022/07/31 07:06:21;;;;;;;2.7;2.1;;;;;;;18.85;76.25781;941.5615;;;;
2022/07/31 07:08:46;;;;;;;4.7;2.4;;;;;;;18.81;77.12305;941.5748;;;;
2022/07/31 07:11:13;;;;;;;2.5;1.9;;;;;;;18.76;76.56836;941.6403;;;;
2022/07/31 07:13:37;;;;;;;3.4;2.2;;;;;;;18.71;77.89648;941.595;;;;
2022/07/31 07:16:09;;;;;;;3.5;2.3;;;;;;;18.7;77.69922;941.5572;;;;
2022/07/31 07:18:37;;;;;;;2.5;2;;;;;;;18.73;77.20313;941.5479;;;;
2022/07/31 07:21:03;;;;;;;2.5;2.1;;;;;;;18.79;77.41211;941.5533;;;;
2022/07/31 07:23:29;;;;;;;2;1.8;;;;;;;18.81;76.93652;941.5715;;;;
2022/07/31 07:25:54;;;;;;;6;2.2;;;;;;;18.83;77.16309;941.5352;;;;
2022/07/31 07:28:21;;;;;;;2.4;1.9;;;;;;;18.88;77.82422;941.506;;;;
2022/07/31 07:30:47;;;;;;;2.4;2.2;;;;;;;18.97;78.81641;941.4601;;;;
2022/07/31 07:33:14;;;;;;;2.5;2;;;;;;;18.91;79.80762;941.4822;;;;
2022/07/31 07:35:39;;;;;;;3.9;2.1;;;;;;;18.94;79.77734;941.4662;;;;
2022/07/31 07:38:06;;;;;;;3.1;2.3;;;;;;;18.93;80.34766;941.447;;;;
2022/07/31 07:40:32;;;;;;;2.1;2;;;;;;;18.93;79.50781;941.4326;;;;
2022/07/31 07:43:01;;;;;;;2.8;2.4;;;;;;;19.05;79.43555;941.4396;;;;
2022/07/31 07:45:26;;;;;;;2.6;2;;;;;;;19.12;79.79785;941.4334;;;;
2022/07/31 07:47:53;;;;;;;3.2;1.9;;;;;;;19.2;80.31348;941.4756;;;;
2022/07/31 07:50:18;;;;;;;2.9;2.1;;;;;;;19.31;80.625;941.5247;;;;
2022/07/31 07:52:49;;;;;;;2.2;2;;;;;;;19.18;81.00781;941.4639;;;;
2022/07/31 07:55:20;;;;;;;2.4;2.2;;;;;;;19.38;80.48535;941.4572;;;;
2022/07/31 07:57:45;;;;;;;2.2;2;;;;;;;19.56;77.67383;941.4308;;;;
2022/07/31 08:00:15;;;;;;;3;2;;;;;;;19.7;76.21875;941.4136;;;;
2022/07/31 08:02:50;;;;;;;2.8;2.3;;;;;;;19.91;75.9043;941.4531;;;;
2022/07/31 08:05:14;;;;;;;2.8;2.3;;;;;;;20.03;75.30762;941.323;;;;
2022/07/31 08:07:41;;;;;;;2.1;2;;;;;;;20.18;73.47656;941.3869;;;;
2022/07/31 08:10:07;;;;;;;4;2.3;;;;;;;20.22;73.50586;941.3803;;;;
2022/07/31 08:12:39;;;;;;;2.3;2.1;;;;;;;20.4;73.08203;941.3764;;;;
2022/07/31 08:15:08;;;;;;;2.6;1.9;;;;;;;20.39;72.21582;941.4269;;;;
2022/07/31 08:17:33;;;;;;;2.5;1.8;;;;;;;20.84;70.78223;941.4228;;;;
2022/07/31 08:20:03;;;;;;;2;1.8;;;;;;;21.42;65.13867;941.3184;;;;
2022/07/31 08:22:28;;;;;;;2.3;1.7;;;;;;;21.71;64.2207;941.3052;;;;
2022/07/31 08:24:57;;;;;;;3.1;2;;;;;;;21.37;66.09082;941.2154;;;;
2022/07/31 08:27:26;;;;;;;2.2;2;;;;;;;22.12;66.65918;941.187;;;;
2022/07/31 08:29:47;;;;;;;1.8;1.5;;;;;;;23.88;59.75586;941.2225;;;;
2022/07/31 08:32:14;;;;;;;1.7;1.6;;;;;;;25.89;54.11426;941.2388;;;;
2022/07/31 08:34:39;;;;;;;1.9;1.6;;;;;;;27.7;50.2373;941.2085;;;;
2022/07/31 08:37:08;;;;;;;1.9;1.8;;;;;;;27.41;47.37012;941.2381;;;;
2022/07/31 08:39:33;;;;;;;3.7;1.8;;;;;;;26.7;48.96387;941.1919;;;;
2022/07/31 08:42:03;;;;;;;2;1.7;;;;;;;25.47;52.5752;941.1772;;;;
2022/07/31 08:44:32;;;;;;;2;1.7;;;;;;;25.73;52.72363;941.1216;;;;
2022/07/31 08:46:58;;;;;;;4.4;2.3;;;;;;;25.73;51.48145;941.0875;;;;
2022/07/31 08:49:23;;;;;;;3.7;2.2;;;;;;;24.84;53.45605;941.1077;;;;
2022/07/31 08:51:48;;;;;;;3.1;1.9;;;;;;;24.38;57.51367;941.1016;;;;
2022/07/31 08:54:13;;;;;;;1.9;1.8;;;;;;;24.19;56.51172;941.1848;;;;
2022/07/31 08:56:42;;;;;;;3.6;2.3;;;;;;;23.95;57.96484;941.2319;;;;
2022/07/31 08:59:07;;;;;;;6;2.1;;;;;;;23.62;59.46191;941.1803;;;;
2022/07/31 09:01:35;;;;;;;2.4;2;;;;;;;23.31;61.90234;941.1735;;;;
2022/07/31 09:04:00;;;;;;;2;1.8;;;;;;;23.24;60.16309;941.1982;;;;
2022/07/31 09:06:29;;;;;;;2.6;1.9;;;;;;;23.57;62.52441;941.2049;;;;
2022/07/31 09:08:55;;;;;;;2.4;1.7;;;;;;;25.27;57.89941;941.1344;;;;
2022/07/31 09:11:21;;;;;;;1.7;1.6;;;;;;;26.22;54.47266;941.0753;;;;
2022/07/31 09:13:45;;;;;;;1.7;1.3;;;;;;;26.82;52.58008;941.0719;;;;
2022/07/31 09:16:10;;;;;;;1.6;1.5;;;;;;;25.82;53.37109;941.0709;;;;
2022/07/31 09:18:36;;;;;;;1.7;1.6;;;;;;;24.4;57.0332;941.06;;;;
2022/07/31 09:21:04;;;;;;;2.6;1.6;;;;;;;24.66;56.98438;941.0469;;;;
2022/07/31 09:23:28;;;;;;;1.5;1.4;;;;;;;24.62;57.98047;941.0502;;;;
2022/07/31 09:25:55;;;;;;;2.1;1.5;;;;;;;24.33;56.21094;941.058;;;;
2022/07/31 09:28:23;;;;;;;2.9;1.6;;;;;;;24.41;57.3877;941.0485;;;;
2022/07/31 09:30:48;;;;;;;1.5;1.4;;;;;;;24.74;57.44141;941.0553;;;;
2022/07/31 09:33:15;;;;;;;1.7;1.6;;;;;;;24.89;55.26758;940.9864;;;;
2022/07/31 09:35:41;;;;;;;3.2;1.7;;;;;;;25.57;55.72754;940.9301;;;;
2022/07/31 09:38:09;;;;;;;1.9;1.5;;;;;;;26.15;51.73145;940.8557;;;;
2022/07/31 09:40:34;;;;;;;1.6;1.4;;;;;;;25.86;54.96094;940.8859;;;;
2022/07/31 09:43:03;;;;;;;1.7;1.5;;;;;;;25.65;53.43457;940.8289;;;;
2022/07/31 09:45:28;;;;;;;2.1;1.4;;;;;;;25.6;52.2832;940.9497;;;;
2022/07/31 09:47:55;;;;;;;3;1.5;;;;;;;24.88;55.12305;940.9578;;;;
2022/07/31 09:50:20;;;;;;;2.6;1.3;;;;;;;25.31;53.39453;940.9449;;;;
2022/07/31 09:52:49;;;;;;;1.4;1.3;;;;;;;25.39;56.43945;940.9537;;;;
2022/07/31 09:55:21;;;;;;;1.5;1.4;;;;;;;25.43;55.44043;940.9914;;;;
2022/07/31 09:57:48;;;;;;;1.7;1.2;;;;;;;25.47;51.98438;940.9653;;;;
2022/07/31 10:00:13;;;;;;;1.5;1.4;;;;;;;25.47;53.56641;940.9377;;;;
2022/07/31 10:02:43;;;;;;;1.6;1.4;;;;;;;25.17;53.05859;940.9224;;;;
2022/07/31 10:05:08;;;;;;;2;1.5;;;;;;;25.16;53.6123;940.899;;;;
2022/07/31 10:07:36;;;;;;;1.8;1.7;;;;;;;24.91;54.80957;940.8594;;;;
2022/07/31 10:10:00;;;;;;;1.5;1.4;;;;;;;25.09;54.58203;940.8469;;;;
2022/07/31 10:12:28;;;;;;;1.6;1.5;;;;;;;25.37;51.55957;940.7722;;;;
2022/07/31 10:14:53;;;;;;;1.8;1.7;;;;;;;25.51;50.7373;940.7408;;;;
2022/07/31 10:17:19;;;;;;;2.2;1.7;;;;;;;25.52;50.94922;940.7617;;;;
2022/07/31 10:19:46;;;;;;;2.2;1.5;;;;;;;25.32;52.48633;940.7994;;;;
2022/07/31 10:22:11;;;;;;;3.3;1.6;;;;;;;25.16;50.9082;940.8396;;;;
2022/07/31 10:24:36;;;;;;;2.7;1.9;;;;;;;25.2;55.30664;940.8102;;;;
2022/07/31 10:27:01;;;;;;;1.7;1.6;;;;;;;25.22;54.39844;940.8274;;;;
2022/07/31 10:29:28;;;;;;;1.5;1.3;;;;;;;25.14;53.25488;940.834;;;;
2022/07/31 10:31:53;;;;;;;1.6;1.5;;;;;;;24.91;53.04004;940.7967;;;;
2022/07/31 10:34:19;;;;;;;7;1.9;;;;;;;24.83;52.03906;940.7977;;;;
2022/07/31 10:36:45;;;;;;;1.9;1.6;;;;;;;24.82;53.33594;940.8359;;;;
2022/07/31 10:39:09;;;;;;;1.6;1.5;;;;;;;24.84;54.54199;940.8044;;;;
2022/07/31 10:41:34;;;;;;;2.2;1.8;;;;;;;24.85;56.48828;940.8081;;;;
2022/07/31 10:44:00;;;;;;;1.5;1.4;;;;;;;24.82;53.81934;940.8082;;;;
2022/07/31 10:46:25;;;;;;;2.5;1.4;;;;;;;24.81;54.22949;940.7795;;;;
2022/07/31 10:48:52;;;;;;;2.4;1.4;;;;;;;24.8;54.08789;940.7935;;;;
2022/07/31 10:51:17;;;;;;;1.7;1.6;;;;;;;24.82;53.78418;940.7805;;;;
2022/07/31 10:53:45;;;;;;;1.7;1.5;;;;;;;24.84;55.10742;940.7834;;;;
2022/07/31 10:56:12;;;;;;;2;1.9;;;;;;;24.74;61.06152;940.7197;;;;
2022/07/31 10:58:36;;;;;;;3.5;1.9;;;;;;;24.8;62.47363;940.7946;;;;
2022/07/31 11:01:01;;;;;;;2.7;2.2;;;;;;;24.91;61.30957;940.8007;;;;
2022/07/31 11:03:29;;;;;;;3;1.8;;;;;;;25.16;60.48145;940.772;;;;
2022/07/31 11:05:57;;;;;;;3.5;2;;;;;;;25.07;59.33691;940.8042;;;;
2022/07/31 11:08:25;;;;;;;2.5;1.9;;;;;;;25.18;56.91992;940.7419;;;;
2022/07/31 11:10:52;;;;;;;2.4;2.1;;;;;;;25.11;58.90527;940.7838;;;;
2022/07/31 11:13:18;;;;;;;3.1;2;;;;;;;25.25;58.71191;940.7006;;;;
2022/07/31 11:15:43;;;;;;;2.2;1.7;;;;;;;25.46;59.64844;940.7177;;;;
2022/07/31 11:18:11;;;;;;;2.4;1.6;;;;;;;25.74;56.64844;940.6675;;;;
2022/07/31 11:20:36;;;;;;;2.4;1.8;;;;;;;25.84;56.96875;940.6878;;;;
2022/07/31 11:23:02;;;;;;;2.7;1.6;;;;;;;25.9;56.31348;940.6239;;;;
2022/07/31 11:25:32;;;;;;;2.4;1.7;;;;;;;25.94;54.66504;940.6789;;;;
2022/07/31 11:27:54;;;;;;;1.8;1.7;;;;;;;26.15;54.09863;940.6277;;;;
2022/07/31 11:30:20;;;;;;;2.2;1.4;;;;;;;26.27;50.69336;940.646;;;;
2022/07/31 11:32:45;;;;;;;2.6;1.9;;;;;;;26.23;47.70605;940.6429;;;;
2022/07/31 11:35:11;;;;;;;1.8;1.7;;;;;;;26.33;48.85352;940.6611;;;;
2022/07/31 11:37:36;;;;;;;3.1;1.7;;;;;;;26.47;50.43066;940.7076;;;;
2022/07/31 11:40:02;;;;;;;4.2;2.2;;;;;;;26.13;48.54688;940.6663;;;;
2022/07/31 11:42:29;;;;;;;1.8;1.7;;;;;;;25.84;51.10449;940.6395;;;;
2022/07/31 11:44:54;;;;;;;1.7;1.6;;;;;;;25.95;50.38379;940.5292;;;;
2022/07/31 11:47:20;;;;;;;2.2;2;;;;;;;26.24;50.10938;940.5823;;;;
2022/07/31 11:49:45;;;;;;;1.8;1.6;;;;;;;26.46;50.5;940.5078;;;;
2022/07/31 11:52:11;;;;;;;2.1;1.7;;;;;;;26.6;47.40234;940.4756;;;;
2022/07/31 11:54:36;;;;;;;2.4;1.8;;;;;;;26.59;47.61523;940.4727;;;;
2022/07/31 11:57:06;;;;;;;2.4;1.8;;;;;;;26.72;47.68652;940.4702;;;;
2022/07/31 11:59:33;;;;;;;2.8;1.7;;;;;;;27.31;46.43359;940.4094;;;;
2022/07/31 12:01:58;;;;;;;2.1;1.7;;;;;;;27.56;46.70801;940.3727;;;;
2022/07/31 12:04:27;;;;;;;2.5;1.7;;;;;;;27.84;44.20898;940.4089;;;;
2022/07/31 12:06:51;;;;;;;2.4;1.9;;;;;;;27.72;46.84473;940.4143;;;;
2022/07/31 12:09:19;;;;;;;1.7;1.6;;;;;;;27.58;44.22949;940.3839;;;;
2022/07/31 12:11:44;;;;;;;2.3;1.7;;;;;;;27.5;45.44434;940.3039;;;;
2022/07/31 12:14:12;;;;;;;2.1;1.8;;;;;;;27.3;47.38184;940.3131;;;;
2022/07/31 12:16:40;;;;;;;2.7;1.8;;;;;;;26.92;45.64746;940.2615;;;;
2022/07/31 12:19:10;;;;;;;3;2;;;;;;;26.66;48.99609;940.2762;;;;
2022/07/31 12:21:35;;;;;;;2.8;1.7;;;;;;;26.58;48.54883;940.2863;;;;
2022/07/31 12:24:03;;;;;;;2.8;1.9;;;;;;;26.71;50.18555;940.2547;;;;
2022/07/31 12:26:28;;;;;;;1.8;1.7;;;;;;;26.71;47.87598;940.2671;;;;
2022/07/31 12:28:55;;;;;;;3;1.9;;;;;;;26.47;47.43652;940.2394;;;;
2022/07/31 12:31:20;;;;;;;2.9;1.9;;;;;;;26.57;47.0918;940.2073;;;;
2022/07/31 12:33:46;;;;;;;2;1.8;;;;;;;26.44;47.07813;940.204;;;;
2022/07/31 12:36:11;;;;;;;1.9;1.7;;;;;;;26.46;45.57617;940.2495;;;;
2022/07/31 12:38:38;;;;;;;1.8;1.5;;;;;;;26.15;43.15527;940.2573;;;;
2022/07/31 12:41:04;;;;;;;1.9;1.7;;;;;;;26.07;44.48438;940.2609;;;;
2022/07/31 12:43:29;;;;;;;2.8;1.9;;;;;;;25.84;46.84863;940.2225;;;;
2022/07/31 12:45:58;;;;;;;1.7;1.6;;;;;;;26.02;48.34668;940.1906;;;;
2022/07/31 12:48:20;;;;;;;4.3;1.7;;;;;;;26.46;50.27637;940.1655;;;;
2022/07/31 12:50:47;;;;;;;1.7;1.6;;;;;;;27.02;46.08398;940.1013;;;;
2022/07/31 12:53:13;;;;;;;2.5;1.9;;;;;;;27.67;47.50391;940.1021;;;;
2022/07/31 12:55:39;;;;;;;2.3;1.8;;;;;;;28.07;42.56738;940.0856;;;;
2022/07/31 12:58:04;;;;;;;2.2;1.6;;;;;;;28.14;44.1543;940.0131;;;;
2022/07/31 13:00:30;;;;;;;4.3;1.7;;;;;;;27.82;43.43457;940.0574;;;;
2022/07/31 13:02:55;;;;;;;1.7;1.6;;;;;;;27.57;44.91797;940.0602;;;;
2022/07/31 13:05:21;;;;;;;3.7;1.7;;;;;;;27.4;43.3457;940.0178;;;;
2022/07/31 13:07:47;;;;;;;2;1.8;;;;;;;27.26;43.06152;939.9659;;;;
2022/07/31 13:10:17;;;;;;;2;1.6;;;;;;;27.29;43.58594;939.954;;;;
2022/07/31 13:12:48;;;;;;;2.5;1.9;;;;;;;26.81;44.71094;939.8018;;;;
2022/07/31 13:15:10;;;;;;;3.3;2;;;;;;;26.65;44.25781;939.8329;;;;
2022/07/31 13:17:36;;;;;;;2.2;1.8;;;;;;;26.77;44.48145;939.8058;;;;
2022/07/31 13:20:03;;;;;;;2.1;1.4;;;;;;;26.95;45.88672;939.8072;;;;
2022/07/31 13:22:28;;;;;;;2;1.6;;;;;;;27.21;44.38477;939.8554;;;;
2022/07/31 13:24:55;;;;;;;2.6;1.8;;;;;;;27.42;46.5752;939.8823;;;;
2022/07/31 13:27:20;;;;;;;2;1.8;;;;;;;27.39;44.05762;939.8594;;;;
2022/07/31 13:29:48;;;;;;;2.8;1.7;;;;;;;27.67;47.32617;939.8092;;;;
2022/07/31 13:32:13;;;;;;;1.4;1.3;;;;;;;28;45.59082;939.8272;;;;
2022/07/31 13:34:39;;;;;;;2.4;1.7;;;;;;;28.25;44.06934;939.7584;;;;
2022/07/31 13:37:04;;;;;;;1.8;1.7;;;;;;;28.36;45.62695;939.7277;;;;
2022/07/31 13:39:32;;;;;;;1.6;1.5;;;;;;;28.63;43.83496;939.7147;;;;
2022/07/31 13:41:57;;;;;;;1.6;1.4;;;;;;;28.79;42.56445;939.645;;;;
2022/07/31 13:44:23;;;;;;;3;1.9;;;;;;;28.48;44.59277;939.702;;;;
2022/07/31 13:46:48;;;;;;;1.7;1.6;;;;;;;28.44;42.24609;939.585;;;;
2022/07/31 13:49:15;;;;;;;1.6;1.5;;;;;;;28.74;42.76172;939.6136;;;;
2022/07/31 13:51:41;;;;;;;1.6;1.5;;;;;;;28.85;43.11816;939.625;;;;
2022/07/31 13:54:07;;;;;;;1.8;1.6;;;;;;;28.81;46.74316;939.6028;;;;
2022/07/31 13:56:33;;;;;;;2.8;1.8;;;;;;;28.93;43.39844;939.5955;;;;
2022/07/31 13:59:00;;;;;;;1.6;1.5;;;;;;;28.49;46.49707;939.6541;;;;
2022/07/31 14:01:25;;;;;;;2;1.8;;;;;;;28.38;44.92773;939.606;;;;
2022/07/31 14:03:53;;;;;;;2.9;1.6;;;;;;;28.79;43.65918;939.6217;;;;
2022/07/31 14:06:18;;;;;;;2.8;1.6;;;;;;;28.2;42.90137;939.4953;;;;
2022/07/31 14:08:44;;;;;;;1.6;1.5;;;;;;;28.22;43.63965;939.5158;;;;
2022/07/31 14:11:09;;;;;;;2.5;1.8;;;;;;;28.18;46.08398;939.5171;;;;
2022/07/31 14:13:36;;;;;;;2.6;1.4;;;;;;;28.27;41.95703;939.4525;;;;
2022/07/31 14:16:05;;;;;;;1.8;1.7;;;;;;;28.53;43.3252;939.4345;;;;
2022/07/31 14:18:32;;;;;;;2.3;1.5;;;;;;;28.57;43.58984;939.479;;;;
2022/07/31 14:20:57;;;;;;;2.5;1.7;;;;;;;28.49;43.44043;939.4805;;;;
2022/07/31 14:23:22;;;;;;;1.8;1.3;;;;;;;28.08;42.98535;939.5079;;;;
2022/07/31 14:25:47;;;;;;;2.4;1.7;;;;;;;27.95;44.16016;939.4584;;;;
2022/07/31 14:28:15;;;;;;;3.3;1.6;;;;;;;28.37;44.07031;939.4633;;;;
2022/07/31 14:30:44;;;;;;;1.8;1.5;;;;;;;28.42;42.42285;939.4233;;;;
2022/07/31 14:33:05;;;;;;;1.6;1.5;;;;;;;28.33;43.05664;939.4083;;;;
2022/07/31 14:35:33;;;;;;;1.7;1.6;;;;;;;28.11;44.24609;939.3639;;;;
2022/07/31 14:37:58;;;;;;;3.8;1.8;;;;;;;27.92;44.96387;939.3743;;;;
2022/07/31 14:40:26;;;;;;;1.8;1.6;;;;;;;27.92;45.25;939.3855;;;;
2022/07/31 14:42:50;;;;;;;1.8;1.7;;;;;;;28.08;45.91992;939.3808;;;;
2022/07/31 14:45:19;;;;;;;1.8;1.7;;;;;;;28.13;45.23438;939.3644;;;;
2022/07/31 14:47:49;;;;;;;2.1;1.4;;;;;;;28.17;44.19336;939.3422;;;;
2022/07/31 14:50:13;;;;;;;1.9;1.4;;;;;;;28.18;43.01758;939.3163;;;;
2022/07/31 14:52:38;;;;;;;3.2;1.6;;;;;;;28.36;43.22656;939.3474;;;;
2022/07/31 14:55:05;;;;;;;2.8;1.5;;;;;;;28.47;44.56738;939.2808;;;;
2022/07/31 14:57:30;;;;;;;1.7;1.5;;;;;;;28.46;46.23145;939.2807;;;;
2022/07/31 14:59:57;;;;;;;1.7;1.6;;;;;;;28.48;44.73535;939.2963;;;;
2022/07/31 15:02:22;;;;;;;1.7;1.5;;;;;;;28.41;43.46777;939.2874;;;;
2022/07/31 15:04:47;;;;;;;2.9;1.6;;;;;;;28.27;43.5498;939.3002;;;;
2022/07/31 15:07:12;;;;;;;2.9;1.3;;;;;;;28.31;43.17383;939.3093;;;;
2022/07/31 15:09:39;;;;;;;1.7;1.4;;;;;;;28.29;44.2998;939.3665;;;;
2022/07/31 15:12:04;;;;;;;3;1.7;;;;;;;28.21;44.05469;939.3719;;;;
2022/07/31 15:14:30;;;;;;;1.9;1.7;;;;;;;28.15;44.42969;939.3376;;;;
2022/07/31 15:16:55;;;;;;;1.7;1.5;;;;;;;28.12;44.0459;939.3192;;;;
2022/07/31 15:19:22;;;;;;;1.8;1.4;;;;;;;28.11;45.00684;939.3375;;;;
2022/07/31 15:21:47;;;;;;;2.1;1.6;;;;;;;28.03;45.34473;939.4023;;;;
2022/07/31 15:24:14;;;;;;;2.5;1.5;;;;;;;27.27;45.20801;939.3703;;;;
2022/07/31 15:26:39;;;;;;;1.3;1.2;;;;;;;27.35;45.60742;939.3865;;;;
2022/07/31 15:29:06;;;;;;;2;1.8;;;;;;;27.39;46.96387;939.3474;;;;
2022/07/31 15:31:32;;;;;;;2;1.5;;;;;;;27.41;46.2666;939.3613;;;;
2022/07/31 15:33:56;;;;;;;2.6;1.8;;;;;;;27.26;46.01367;939.3438;;;;